sensor_id;sensor_type;location;lat;lon;timestamp;P1;durP1;ratioP1;P2;durP2;ratioP2
30635;SDS011;17400;52.392;9.750;2023-09-12T00:02:11;10.60;;;6.43;;
30635;SDS011;17400;52.392;9.750;2023-09-12T00:04:40;9.32;;;5.82;;
30635;SDS011;17400;52.392;9.750;2023-09-12T00:07:09;8.35;;;6.15;;
30635;SDS011;17400;52.392;9.750;2023-09-12T00:09:37;8.65;;;6.13;;
30635;SDS011;17400;52.392;9.750;2023-09-12T00:12:05;7.93;;;6.50;;
30635;SDS011;17400;52.392;9.750;2023-09-12T00:14:34;10.75;;;6.60;;
30635;SDS011;17400;52.392;9.750;2023-09-12T00:17:02;10.95;;;7.15;;
30635;SDS011;17400;52.392;9.750;2023-09-12T00:19:30;10.75;;;6.40;;
30635;SDS011;17400;52.392;9.750;2023-09-12T00:21:58;7.80;;;6.28;;
30635;SDS011;17400;52.392;9.750;2023-09-12T00:24:28;8.90;;;6.75;;
30635;SDS011;17400;52.392;9.750;2023-09-12T00:26:56;9.35;;;6.43;;
30635;SDS011;17400;52.392;9.750;2023-09-12T00:29:24;8.95;;;6.03;;
30635;SDS011;17400;52.392;9.750;2023-09-12T00:31:52;11.15;;;6.20;;
30635;SDS011;17400;52.392;9.750;2023-09-12T00:34:20;10.88;;;6.63;;
30635;SDS011;17400;52.392;9.750;2023-09-12T00:36:48;9.20;;;6.50;;
30635;SDS011;17400;52.392;9.750;2023-09-12T00:39:14;10.90;;;6.45;;
30635;SDS011;17400;52.392;9.750;2023-09-12T00:41:44;9.23;;;6.88;;
30635;SDS011;17400;52.392;9.750;2023-09-12T00:44:12;9.00;;;6.57;;
30635;SDS011;17400;52.392;9.750;2023-09-12T00:46:40;14.70;;;7.55;;
30635;SDS011;17400;52.392;9.750;2023-09-12T00:49:09;10.30;;;6.80;;
30635;SDS011;17400;52.392;9.750;2023-09-12T00:51:38;10.82;;;6.78;;
30635;SDS011;17400;52.392;9.750;2023-09-12T00:54:06;11.95;;;7.28;;
30635;SDS011;17400;52.392;9.750;2023-09-12T00:56:35;9.73;;;7.20;;
30635;SDS011;17400;52.392;9.750;2023-09-12T00:59:05;9.90;;;6.85;;
30635;SDS011;17400;52.392;9.750;2023-09-12T01:01:33;10.00;;;7.38;;
30635;SDS011;17400;52.392;9.750;2023-09-12T01:04:02;9.35;;;6.63;;
30635;SDS011;17400;52.392;9.750;2023-09-12T01:06:31;9.88;;;6.75;;
30635;SDS011;17400;52.392;9.750;2023-09-12T01:09:00;9.90;;;7.43;;
30635;SDS011;17400;52.392;9.750;2023-09-12T01:11:28;13.05;;;7.20;;
30635;SDS011;17400;52.392;9.750;2023-09-12T01:13:56;8.02;;;6.30;;
30635;SDS011;17400;52.392;9.750;2023-09-12T01:16:25;10.23;;;7.53;;
30635;SDS011;17400;52.392;9.750;2023-09-12T01:18:53;11.20;;;6.75;;
30635;SDS011;17400;52.392;9.750;2023-09-12T01:21:36;15.20;;;7.75;;
30635;SDS011;17400;52.392;9.750;2023-09-12T01:24:21;9.23;;;6.82;;
30635;SDS011;17400;52.392;9.750;2023-09-12T01:27:22;8.93;;;5.68;;
30635;SDS011;17400;52.392;9.750;2023-09-12T01:29:57;8.35;;;6.85;;
30635;SDS011;17400;52.392;9.750;2023-09-12T01:32:31;7.65;;;6.45;;
30635;SDS011;17400;52.392;9.750;2023-09-12T01:35:00;10.60;;;7.45;;
30635;SDS011;17400;52.392;9.750;2023-09-12T01:37:29;9.35;;;7.20;;
30635;SDS011;17400;52.392;9.750;2023-09-12T01:39:57;9.95;;;7.07;;
30635;SDS011;17400;52.392;9.750;2023-09-12T01:42:28;13.18;;;7.40;;
30635;SDS011;17400;52.392;9.750;2023-09-12T01:44:59;9.05;;;7.28;;
30635;SDS011;17400;52.392;9.750;2023-09-12T01:47:29;9.68;;;7.13;;
30635;SDS011;17400;52.392;9.750;2023-09-12T01:49:57;10.95;;;6.40;;
30635;SDS011;17400;52.392;9.750;2023-09-12T01:52:28;8.82;;;6.65;;
30635;SDS011;17400;52.392;9.750;2023-09-12T01:54:57;12.13;;;7.47;;
30635;SDS011;17400;52.392;9.750;2023-09-12T01:57:26;9.65;;;6.75;;
30635;SDS011;17400;52.392;9.750;2023-09-12T01:59:55;10.52;;;7.55;;
30635;SDS011;17400;52.392;9.750;2023-09-12T02:02:23;9.68;;;6.78;;
30635;SDS011;17400;52.392;9.750;2023-09-12T02:04:51;9.40;;;7.15;;
30635;SDS011;17400;52.392;9.750;2023-09-12T02:07:27;8.77;;;6.97;;
30635;SDS011;17400;52.392;9.750;2023-09-12T02:09:58;10.18;;;7.47;;
30635;SDS011;17400;52.392;9.750;2023-09-12T02:12:28;10.07;;;7.05;;
30635;SDS011;17400;52.392;9.750;2023-09-12T02:14:56;9.60;;;6.38;;
30635;SDS011;17400;52.392;9.750;2023-09-12T02:17:23;11.18;;;7.70;;
30635;SDS011;17400;52.392;9.750;2023-09-12T02:19:51;11.02;;;8.15;;
30635;SDS011;17400;52.392;9.750;2023-09-12T02:22:19;12.52;;;7.80;;
30635;SDS011;17400;52.392;9.750;2023-09-12T02:24:47;11.63;;;6.47;;
30635;SDS011;17400;52.392;9.750;2023-09-12T02:27:15;9.45;;;6.65;;
30635;SDS011;17400;52.392;9.750;2023-09-12T02:29:44;10.25;;;6.70;;
30635;SDS011;17400;52.392;9.750;2023-09-12T02:32:12;12.05;;;7.05;;
30635;SDS011;17400;52.392;9.750;2023-09-12T02:34:40;10.55;;;8.02;;
30635;SDS011;17400;52.392;9.750;2023-09-12T02:37:08;8.88;;;6.95;;
30635;SDS011;17400;52.392;9.750;2023-09-12T02:39:36;9.18;;;6.95;;
30635;SDS011;17400;52.392;9.750;2023-09-12T02:42:04;10.65;;;6.68;;
30635;SDS011;17400;52.392;9.750;2023-09-12T02:44:32;14.48;;;6.90;;
30635;SDS011;17400;52.392;9.750;2023-09-12T02:47:02;8.07;;;6.80;;
30635;SDS011;17400;52.392;9.750;2023-09-12T02:49:33;9.98;;;7.03;;
30635;SDS011;17400;52.392;9.750;2023-09-12T02:52:01;9.93;;;7.18;;
30635;SDS011;17400;52.392;9.750;2023-09-12T02:54:28;10.57;;;8.02;;
30635;SDS011;17400;52.392;9.750;2023-09-12T02:56:56;10.13;;;6.95;;
30635;SDS011;17400;52.392;9.750;2023-09-12T02:59:24;8.32;;;6.32;;
30635;SDS011;17400;52.392;9.750;2023-09-12T03:01:52;10.43;;;6.93;;
30635;SDS011;17400;52.392;9.750;2023-09-12T03:04:21;12.45;;;8.07;;
30635;SDS011;17400;52.392;9.750;2023-09-12T03:06:50;12.18;;;7.70;;
30635;SDS011;17400;52.392;9.750;2023-09-12T03:09:18;10.57;;;7.45;;
30635;SDS011;17400;52.392;9.750;2023-09-12T03:11:46;9.55;;;7.35;;
30635;SDS011;17400;52.392;9.750;2023-09-12T03:14:14;9.68;;;7.07;;
30635;SDS011;17400;52.392;9.750;2023-09-12T03:16:41;11.63;;;7.00;;
30635;SDS011;17400;52.392;9.750;2023-09-12T03:19:09;13.43;;;7.70;;
30635;SDS011;17400;52.392;9.750;2023-09-12T03:21:38;10.07;;;7.78;;
30635;SDS011;17400;52.392;9.750;2023-09-12T03:24:06;11.02;;;8.13;;
30635;SDS011;17400;52.392;9.750;2023-09-12T03:26:35;10.73;;;7.93;;
30635;SDS011;17400;52.392;9.750;2023-09-12T03:29:03;13.93;;;8.35;;
30635;SDS011;17400;52.392;9.750;2023-09-12T03:31:31;11.98;;;7.93;;
30635;SDS011;17400;52.392;9.750;2023-09-12T03:33:59;12.07;;;9.48;;
30635;SDS011;17400;52.392;9.750;2023-09-12T03:36:26;14.70;;;7.97;;
30635;SDS011;17400;52.392;9.750;2023-09-12T03:38:56;12.50;;;9.10;;
30635;SDS011;17400;52.392;9.750;2023-09-12T03:41:23;12.18;;;7.85;;
30635;SDS011;17400;52.392;9.750;2023-09-12T03:43:52;14.65;;;8.07;;
30635;SDS011;17400;52.392;9.750;2023-09-12T03:46:21;11.90;;;7.80;;
30635;SDS011;17400;52.392;9.750;2023-09-12T03:48:48;15.13;;;8.90;;
30635;SDS011;17400;52.392;9.750;2023-09-12T03:51:16;13.45;;;8.38;;
30635;SDS011;17400;52.392;9.750;2023-09-12T03:53:44;10.82;;;7.50;;
30635;SDS011;17400;52.392;9.750;2023-09-12T03:56:15;13.90;;;7.93;;
30635;SDS011;17400;52.392;9.750;2023-09-12T03:58:46;12.40;;;7.90;;
30635;SDS011;17400;52.392;9.750;2023-09-12T04:01:15;13.95;;;10.02;;
30635;SDS011;17400;52.392;9.750;2023-09-12T04:03:43;13.95;;;9.23;;
30635;SDS011;17400;52.392;9.750;2023-09-12T04:06:14;15.25;;;9.43;;
30635;SDS011;17400;52.392;9.750;2023-09-12T04:08:42;12.27;;;8.15;;
30635;SDS011;17400;52.392;9.750;2023-09-12T04:11:10;11.13;;;7.90;;
30635;SDS011;17400;52.392;9.750;2023-09-12T04:13:39;14.00;;;7.97;;
30635;SDS011;17400;52.392;9.750;2023-09-12T04:16:07;11.20;;;6.75;;
30635;SDS011;17400;52.392;9.750;2023-09-12T04:18:35;10.80;;;7.57;;
30635;SDS011;17400;52.392;9.750;2023-09-12T04:21:03;8.40;;;6.68;;
30635;SDS011;17400;52.392;9.750;2023-09-12T04:23:31;9.30;;;7.15;;
30635;SDS011;17400;52.392;9.750;2023-09-12T04:25:59;9.27;;;6.47;;
30635;SDS011;17400;52.392;9.750;2023-09-12T04:28:29;11.02;;;7.47;;
30635;SDS011;17400;52.392;9.750;2023-09-12T04:31:02;9.98;;;7.32;;
30635;SDS011;17400;52.392;9.750;2023-09-12T04:33:30;9.15;;;6.28;;
30635;SDS011;17400;52.392;9.750;2023-09-12T04:36:00;9.75;;;5.78;;
30635;SDS011;17400;52.392;9.750;2023-09-12T04:38:28;10.50;;;6.82;;
30635;SDS011;17400;52.392;9.750;2023-09-12T04:40:56;9.38;;;5.47;;
30635;SDS011;17400;52.392;9.750;2023-09-12T04:43:29;7.88;;;4.82;;
30635;SDS011;17400;52.392;9.750;2023-09-12T04:45:57;7.25;;;5.13;;
30635;SDS011;17400;52.392;9.750;2023-09-12T04:48:26;6.32;;;4.65;;
30635;SDS011;17400;52.392;9.750;2023-09-12T04:50:55;7.38;;;4.57;;
30635;SDS011;17400;52.392;9.750;2023-09-12T04:53:22;7.43;;;4.53;;
30635;SDS011;17400;52.392;9.750;2023-09-12T04:55:51;6.82;;;4.72;;
30635;SDS011;17400;52.392;9.750;2023-09-12T04:58:20;11.38;;;5.00;;
30635;SDS011;17400;52.392;9.750;2023-09-12T05:00:48;9.18;;;5.32;;
30635;SDS011;17400;52.392;9.750;2023-09-12T05:03:16;9.80;;;5.07;;
30635;SDS011;17400;52.392;9.750;2023-09-12T05:05:46;7.82;;;5.05;;
30635;SDS011;17400;52.392;9.750;2023-09-12T05:08:14;6.53;;;4.97;;
30635;SDS011;17400;52.392;9.750;2023-09-12T05:10:43;7.88;;;5.20;;
30635;SDS011;17400;52.392;9.750;2023-09-12T05:13:11;8.07;;;5.20;;
30635;SDS011;17400;52.392;9.750;2023-09-12T05:15:40;8.23;;;5.03;;
30635;SDS011;17400;52.392;9.750;2023-09-12T05:18:09;7.90;;;5.03;;
30635;SDS011;17400;52.392;9.750;2023-09-12T05:20:37;6.20;;;4.32;;
30635;SDS011;17400;52.392;9.750;2023-09-12T05:23:07;6.20;;;4.18;;
30635;SDS011;17400;52.392;9.750;2023-09-12T05:25:34;6.50;;;4.63;;
30635;SDS011;17400;52.392;9.750;2023-09-12T05:28:02;7.20;;;4.93;;
30635;SDS011;17400;52.392;9.750;2023-09-12T05:30:31;6.85;;;4.80;;
30635;SDS011;17400;52.392;9.750;2023-09-12T05:32:59;6.43;;;4.60;;
30635;SDS011;17400;52.392;9.750;2023-09-12T05:35:27;7.53;;;4.63;;
30635;SDS011;17400;52.392;9.750;2023-09-12T05:37:54;5.22;;;3.33;;
30635;SDS011;17400;52.392;9.750;2023-09-12T05:40:23;7.00;;;4.75;;
30635;SDS011;17400;52.392;9.750;2023-09-12T05:42:51;5.07;;;4.13;;
30635;SDS011;17400;52.392;9.750;2023-09-12T05:45:19;7.55;;;4.80;;
30635;SDS011;17400;52.392;9.750;2023-09-12T05:47:47;9.35;;;5.55;;
30635;SDS011;17400;52.392;9.750;2023-09-12T05:50:15;8.15;;;4.93;;
30635;SDS011;17400;52.392;9.750;2023-09-12T05:52:43;6.95;;;4.40;;
30635;SDS011;17400;52.392;9.750;2023-09-12T05:55:11;7.50;;;4.43;;
30635;SDS011;17400;52.392;9.750;2023-09-12T05:57:40;5.63;;;3.33;;
30635;SDS011;17400;52.392;9.750;2023-09-12T06:00:08;6.13;;;2.90;;
30635;SDS011;17400;52.392;9.750;2023-09-12T06:02:38;3.83;;;2.80;;
30635;SDS011;17400;52.392;9.750;2023-09-12T06:05:06;4.47;;;2.88;;
30635;SDS011;17400;52.392;9.750;2023-09-12T06:07:35;4.35;;;2.67;;
30635;SDS011;17400;52.392;9.750;2023-09-12T06:10:05;5.95;;;3.25;;
30635;SDS011;17400;52.392;9.750;2023-09-12T06:12:34;4.05;;;2.65;;
30635;SDS011;17400;52.392;9.750;2023-09-12T06:15:04;5.00;;;2.35;;
30635;SDS011;17400;52.392;9.750;2023-09-12T06:17:33;5.10;;;2.38;;
30635;SDS011;17400;52.392;9.750;2023-09-12T06:20:02;5.30;;;2.28;;
30635;SDS011;17400;52.392;9.750;2023-09-12T06:22:33;4.38;;;3.10;;
30635;SDS011;17400;52.392;9.750;2023-09-12T06:25:02;7.30;;;3.33;;
30635;SDS011;17400;52.392;9.750;2023-09-12T06:27:31;5.18;;;2.42;;
30635;SDS011;17400;52.392;9.750;2023-09-12T06:29:58;3.88;;;2.60;;
30635;SDS011;17400;52.392;9.750;2023-09-12T06:32:28;4.43;;;2.78;;
30635;SDS011;17400;52.392;9.750;2023-09-12T06:34:56;4.32;;;2.55;;
30635;SDS011;17400;52.392;9.750;2023-09-12T06:37:24;5.93;;;2.38;;
30635;SDS011;17400;52.392;9.750;2023-09-12T06:39:52;4.68;;;2.85;;
30635;SDS011;17400;52.392;9.750;2023-09-12T06:42:20;4.95;;;2.38;;
30635;SDS011;17400;52.392;9.750;2023-09-12T06:44:48;6.00;;;2.83;;
30635;SDS011;17400;52.392;9.750;2023-09-12T06:47:16;4.18;;;2.65;;
30635;SDS011;17400;52.392;9.750;2023-09-12T06:49:45;4.78;;;2.88;;
30635;SDS011;17400;52.392;9.750;2023-09-12T06:52:20;4.55;;;2.78;;
30635;SDS011;17400;52.392;9.750;2023-09-12T06:54:48;4.15;;;2.55;;
30635;SDS011;17400;52.392;9.750;2023-09-12T06:57:16;8.07;;;3.20;;
30635;SDS011;17400;52.392;9.750;2023-09-12T06:59:44;3.13;;;2.10;;
30635;SDS011;17400;52.392;9.750;2023-09-12T07:02:14;5.25;;;2.83;;
30635;SDS011;17400;52.392;9.750;2023-09-12T07:04:46;6.03;;;3.80;;
30635;SDS011;17400;52.392;9.750;2023-09-12T07:07:13;5.10;;;3.25;;
30635;SDS011;17400;52.392;9.750;2023-09-12T07:09:41;6.63;;;3.05;;
30635;SDS011;17400;52.392;9.750;2023-09-12T07:12:09;8.82;;;3.58;;
30635;SDS011;17400;52.392;9.750;2023-09-12T07:14:37;5.70;;;3.47;;
30635;SDS011;17400;52.392;9.750;2023-09-12T07:17:05;7.57;;;4.07;;
30635;SDS011;17400;52.392;9.750;2023-09-12T07:19:33;6.95;;;3.72;;
30635;SDS011;17400;52.392;9.750;2023-09-12T07:22:02;6.53;;;4.30;;
30635;SDS011;17400;52.392;9.750;2023-09-12T07:24:30;6.15;;;4.20;;
30635;SDS011;17400;52.392;9.750;2023-09-12T07:26:58;8.82;;;4.93;;
30635;SDS011;17400;52.392;9.750;2023-09-12T07:29:26;9.20;;;4.70;;
30635;SDS011;17400;52.392;9.750;2023-09-12T07:31:53;10.25;;;5.35;;
30635;SDS011;17400;52.392;9.750;2023-09-12T07:34:25;7.20;;;5.05;;
30635;SDS011;17400;52.392;9.750;2023-09-12T07:36:53;9.60;;;5.75;;
30635;SDS011;17400;52.392;9.750;2023-09-12T07:39:22;8.07;;;5.40;;
30635;SDS011;17400;52.392;9.750;2023-09-12T07:41:50;7.47;;;4.97;;
30635;SDS011;17400;52.392;9.750;2023-09-12T07:44:19;6.97;;;4.82;;
30635;SDS011;17400;52.392;9.750;2023-09-12T07:46:47;8.85;;;6.03;;
30635;SDS011;17400;52.392;9.750;2023-09-12T07:49:15;9.73;;;5.63;;
30635;SDS011;17400;52.392;9.750;2023-09-12T07:51:43;8.32;;;5.60;;
30635;SDS011;17400;52.392;9.750;2023-09-12T07:54:12;9.55;;;5.68;;
30635;SDS011;17400;52.392;9.750;2023-09-12T07:56:41;12.30;;;5.35;;
30635;SDS011;17400;52.392;9.750;2023-09-12T07:59:09;8.60;;;5.68;;
30635;SDS011;17400;52.392;9.750;2023-09-12T08:01:39;8.07;;;5.70;;
30635;SDS011;17400;52.392;9.750;2023-09-12T08:04:06;7.63;;;5.05;;
30635;SDS011;17400;52.392;9.750;2023-09-12T08:06:34;7.55;;;5.32;;
30635;SDS011;17400;52.392;9.750;2023-09-12T08:09:20;9.70;;;5.97;;
30635;SDS011;17400;52.392;9.750;2023-09-12T08:11:50;11.63;;;5.68;;
30635;SDS011;17400;52.392;9.750;2023-09-12T08:14:18;7.45;;;5.22;;
30635;SDS011;17400;52.392;9.750;2023-09-12T08:16:47;7.18;;;5.00;;
30635;SDS011;17400;52.392;9.750;2023-09-12T08:19:15;8.23;;;5.20;;
30635;SDS011;17400;52.392;9.750;2023-09-12T08:21:45;8.60;;;5.78;;
30635;SDS011;17400;52.392;9.750;2023-09-12T08:24:13;11.10;;;5.97;;
30635;SDS011;17400;52.392;9.750;2023-09-12T08:26:41;9.48;;;5.93;;
30635;SDS011;17400;52.392;9.750;2023-09-12T08:29:10;9.52;;;5.60;;
30635;SDS011;17400;52.392;9.750;2023-09-12T08:31:37;8.77;;;5.57;;
30635;SDS011;17400;52.392;9.750;2023-09-12T08:34:05;9.18;;;5.32;;
30635;SDS011;17400;52.392;9.750;2023-09-12T08:36:34;8.80;;;5.82;;
30635;SDS011;17400;52.392;9.750;2023-09-12T08:39:02;10.57;;;6.30;;
30635;SDS011;17400;52.392;9.750;2023-09-12T08:41:31;10.30;;;6.30;;
30635;SDS011;17400;52.392;9.750;2023-09-12T08:44:00;9.07;;;5.85;;
30635;SDS011;17400;52.392;9.750;2023-09-12T08:46:30;8.85;;;5.50;;
30635;SDS011;17400;52.392;9.750;2023-09-12T08:48:58;11.05;;;7.10;;
30635;SDS011;17400;52.392;9.750;2023-09-12T08:51:26;8.55;;;6.10;;
30635;SDS011;17400;52.392;9.750;2023-09-12T08:53:54;9.30;;;6.07;;
30635;SDS011;17400;52.392;9.750;2023-09-12T08:56:22;11.05;;;6.32;;
30635;SDS011;17400;52.392;9.750;2023-09-12T08:58:51;10.60;;;7.05;;
30635;SDS011;17400;52.392;9.750;2023-09-12T09:01:19;9.55;;;5.88;;
30635;SDS011;17400;52.392;9.750;2023-09-12T09:03:49;8.98;;;5.72;;
30635;SDS011;17400;52.392;9.750;2023-09-12T09:06:17;7.90;;;5.45;;
30635;SDS011;17400;52.392;9.750;2023-09-12T09:08:47;6.35;;;4.30;;
30635;SDS011;17400;52.392;9.750;2023-09-12T09:11:15;6.47;;;4.05;;
30635;SDS011;17400;52.392;9.750;2023-09-12T09:13:44;6.75;;;4.20;;
30635;SDS011;17400;52.392;9.750;2023-09-12T09:16:12;6.30;;;3.30;;
30635;SDS011;17400;52.392;9.750;2023-09-12T09:18:52;4.07;;;3.17;;
30635;SDS011;17400;52.392;9.750;2023-09-12T09:21:22;4.30;;;2.17;;
30635;SDS011;17400;52.392;9.750;2023-09-12T09:23:52;4.10;;;2.75;;
30635;SDS011;17400;52.392;9.750;2023-09-12T09:26:21;4.15;;;2.50;;
30635;SDS011;17400;52.392;9.750;2023-09-12T09:29:06;4.78;;;2.95;;
30635;SDS011;17400;52.392;9.750;2023-09-12T09:31:35;3.50;;;2.35;;
30635;SDS011;17400;52.392;9.750;2023-09-12T09:34:13;2.97;;;1.98;;
30635;SDS011;17400;52.392;9.750;2023-09-12T09:36:43;4.22;;;2.72;;
30635;SDS011;17400;52.392;9.750;2023-09-12T09:39:12;5.00;;;2.83;;
30635;SDS011;17400;52.392;9.750;2023-09-12T09:41:41;4.72;;;3.35;;
30635;SDS011;17400;52.392;9.750;2023-09-12T09:44:09;5.05;;;2.90;;
30635;SDS011;17400;52.392;9.750;2023-09-12T09:46:37;4.63;;;2.67;;
30635;SDS011;17400;52.392;9.750;2023-09-12T09:49:05;5.07;;;3.65;;
30635;SDS011;17400;52.392;9.750;2023-09-12T09:51:41;4.43;;;3.15;;
30635;SDS011;17400;52.392;9.750;2023-09-12T09:54:10;3.92;;;2.50;;
30635;SDS011;17400;52.392;9.750;2023-09-12T09:56:44;4.30;;;2.65;;
30635;SDS011;17400;52.392;9.750;2023-09-12T09:59:14;6.22;;;3.58;;
30635;SDS011;17400;52.392;9.750;2023-09-12T10:01:43;5.35;;;2.95;;
30635;SDS011;17400;52.392;9.750;2023-09-12T10:04:12;5.55;;;3.13;;
30635;SDS011;17400;52.392;9.750;2023-09-12T10:06:44;6.88;;;3.40;;
30635;SDS011;17400;52.392;9.750;2023-09-12T10:09:14;5.63;;;3.28;;
30635;SDS011;17400;52.392;9.750;2023-09-12T10:11:43;4.68;;;2.47;;
30635;SDS011;17400;52.392;9.750;2023-09-12T10:14:15;5.13;;;3.40;;
30635;SDS011;17400;52.392;9.750;2023-09-12T10:16:46;5.13;;;3.38;;
30635;SDS011;17400;52.392;9.750;2023-09-12T10:19:16;7.32;;;3.80;;
30635;SDS011;17400;52.392;9.750;2023-09-12T10:21:48;5.95;;;3.47;;
30635;SDS011;17400;52.392;9.750;2023-09-12T10:24:17;5.78;;;3.90;;
30635;SDS011;17400;52.392;9.750;2023-09-12T10:26:49;6.78;;;2.90;;
30635;SDS011;17400;52.392;9.750;2023-09-12T10:29:18;8.50;;;4.70;;
30635;SDS011;17400;52.392;9.750;2023-09-12T10:31:46;4.82;;;3.03;;
30635;SDS011;17400;52.392;9.750;2023-09-12T10:34:14;5.18;;;3.00;;
30635;SDS011;17400;52.392;9.750;2023-09-12T10:36:44;5.57;;;2.90;;
30635;SDS011;17400;52.392;9.750;2023-09-12T10:39:15;5.40;;;3.22;;
30635;SDS011;17400;52.392;9.750;2023-09-12T10:41:44;6.40;;;2.83;;
30635;SDS011;17400;52.392;9.750;2023-09-12T10:44:14;6.85;;;2.92;;
30635;SDS011;17400;52.392;9.750;2023-09-12T10:46:43;6.88;;;3.20;;
30635;SDS011;17400;52.392;9.750;2023-09-12T10:49:14;6.78;;;3.28;;
30635;SDS011;17400;52.392;9.750;2023-09-12T10:51:44;5.43;;;3.58;;
30635;SDS011;17400;52.392;9.750;2023-09-12T10:54:13;5.38;;;2.75;;
30635;SDS011;17400;52.392;9.750;2023-09-12T10:56:44;5.00;;;2.60;;
30635;SDS011;17400;52.392;9.750;2023-09-12T10:59:17;4.05;;;2.80;;
30635;SDS011;17400;52.392;9.750;2023-09-12T11:01:45;5.28;;;3.35;;
30635;SDS011;17400;52.392;9.750;2023-09-12T11:04:30;4.60;;;2.92;;
30635;SDS011;17400;52.392;9.750;2023-09-12T11:07:00;5.60;;;3.17;;
30635;SDS011;17400;52.392;9.750;2023-09-12T11:09:28;5.60;;;3.45;;
30635;SDS011;17400;52.392;9.750;2023-09-12T11:11:58;5.97;;;2.88;;
30635;SDS011;17400;52.392;9.750;2023-09-12T11:14:29;5.90;;;3.30;;
30635;SDS011;17400;52.392;9.750;2023-09-12T11:19:56;5.63;;;3.25;;
30635;SDS011;17400;52.392;9.750;2023-09-12T11:22:36;6.32;;;4.13;;
30635;SDS011;17400;52.392;9.750;2023-09-12T11:25:15;5.55;;;3.70;;
30635;SDS011;17400;52.392;9.750;2023-09-12T11:28:02;7.65;;;3.80;;
30635;SDS011;17400;52.392;9.750;2023-09-12T11:30:31;7.15;;;4.28;;
30635;SDS011;17400;52.392;9.750;2023-09-12T11:33:03;4.65;;;2.80;;
30635;SDS011;17400;52.392;9.750;2023-09-12T11:35:35;6.15;;;3.78;;
30635;SDS011;17400;52.392;9.750;2023-09-12T11:38:04;4.50;;;3.40;;
30635;SDS011;17400;52.392;9.750;2023-09-12T11:40:42;5.57;;;3.85;;
30635;SDS011;17400;52.392;9.750;2023-09-12T11:43:20;4.57;;;3.00;;
30635;SDS011;17400;52.392;9.750;2023-09-12T11:45:49;6.13;;;3.50;;
30635;SDS011;17400;52.392;9.750;2023-09-12T11:48:19;5.70;;;2.97;;
30635;SDS011;17400;52.392;9.750;2023-09-12T11:50:51;7.55;;;3.10;;
30635;SDS011;17400;52.392;9.750;2023-09-12T11:53:21;4.95;;;2.90;;
30635;SDS011;17400;52.392;9.750;2023-09-12T11:55:52;3.70;;;3.08;;
30635;SDS011;17400;52.392;9.750;2023-09-12T11:58:23;6.80;;;3.90;;
30635;SDS011;17400;52.392;9.750;2023-09-12T12:00:54;6.63;;;3.83;;
30635;SDS011;17400;52.392;9.750;2023-09-12T12:03:24;7.65;;;3.60;;
30635;SDS011;17400;52.392;9.750;2023-09-12T12:05:54;4.93;;;3.53;;
30635;SDS011;17400;52.392;9.750;2023-09-12T12:08:23;5.80;;;3.28;;
30635;SDS011;17400;52.392;9.750;2023-09-12T12:10:58;5.13;;;3.08;;
30635;SDS011;17400;52.392;9.750;2023-09-12T12:13:27;6.95;;;4.00;;
30635;SDS011;17400;52.392;9.750;2023-09-12T12:15:56;5.68;;;3.55;;
30635;SDS011;17400;52.392;9.750;2023-09-12T12:18:24;4.45;;;3.03;;
30635;SDS011;17400;52.392;9.750;2023-09-12T12:20:53;6.80;;;3.72;;
30635;SDS011;17400;52.392;9.750;2023-09-12T12:23:21;5.97;;;3.40;;
30635;SDS011;17400;52.392;9.750;2023-09-12T12:25:49;7.60;;;3.45;;
30635;SDS011;17400;52.392;9.750;2023-09-12T12:28:17;5.28;;;3.28;;
30635;SDS011;17400;52.392;9.750;2023-09-12T12:30:46;5.90;;;3.25;;
30635;SDS011;17400;52.392;9.750;2023-09-12T12:33:20;6.40;;;3.83;;
30635;SDS011;17400;52.392;9.750;2023-09-12T12:36:08;5.70;;;3.55;;
30635;SDS011;17400;52.392;9.750;2023-09-12T12:38:37;6.95;;;3.65;;
30635;SDS011;17400;52.392;9.750;2023-09-12T12:41:23;5.18;;;3.60;;
30635;SDS011;17400;52.392;9.750;2023-09-12T12:44:01;5.47;;;3.00;;
30635;SDS011;17400;52.392;9.750;2023-09-12T12:46:32;5.03;;;3.17;;
30635;SDS011;17400;52.392;9.750;2023-09-12T12:49:00;4.70;;;2.80;;
30635;SDS011;17400;52.392;9.750;2023-09-12T12:51:29;4.60;;;3.25;;
30635;SDS011;17400;52.392;9.750;2023-09-12T12:54:03;5.13;;;3.20;;
30635;SDS011;17400;52.392;9.750;2023-09-12T12:56:33;4.53;;;3.13;;
30635;SDS011;17400;52.392;9.750;2023-09-12T12:59:04;5.68;;;3.00;;
30635;SDS011;17400;52.392;9.750;2023-09-12T13:01:35;5.07;;;3.05;;
30635;SDS011;17400;52.392;9.750;2023-09-12T13:04:04;5.32;;;3.25;;
30635;SDS011;17400;52.392;9.750;2023-09-12T13:06:34;4.57;;;3.00;;
30635;SDS011;17400;52.392;9.750;2023-09-12T13:09:04;7.35;;;3.97;;
30635;SDS011;17400;52.392;9.750;2023-09-12T13:11:33;5.72;;;3.15;;
30635;SDS011;17400;52.392;9.750;2023-09-12T13:14:03;4.13;;;2.58;;
30635;SDS011;17400;52.392;9.750;2023-09-12T13:16:37;4.40;;;2.88;;
30635;SDS011;17400;52.392;9.750;2023-09-12T13:19:11;5.35;;;2.95;;
30635;SDS011;17400;52.392;9.750;2023-09-12T13:21:39;4.63;;;2.80;;
30635;SDS011;17400;52.392;9.750;2023-09-12T13:24:08;5.80;;;4.07;;
30635;SDS011;17400;52.392;9.750;2023-09-12T13:26:36;6.00;;;4.45;;
30635;SDS011;17400;52.392;9.750;2023-09-12T13:29:04;5.75;;;3.40;;
30635;SDS011;17400;52.392;9.750;2023-09-12T13:31:32;5.75;;;3.38;;
30635;SDS011;17400;52.392;9.750;2023-09-12T13:34:01;8.05;;;3.35;;
30635;SDS011;17400;52.392;9.750;2023-09-12T13:36:30;5.60;;;3.72;;
30635;SDS011;17400;52.392;9.750;2023-09-12T13:38:59;6.55;;;3.80;;
30635;SDS011;17400;52.392;9.750;2023-09-12T13:41:28;5.43;;;4.00;;
30635;SDS011;17400;52.392;9.750;2023-09-12T13:43:56;4.43;;;2.92;;
30635;SDS011;17400;52.392;9.750;2023-09-12T13:46:24;6.43;;;4.07;;
30635;SDS011;17400;52.392;9.750;2023-09-12T13:48:53;5.43;;;2.92;;
30635;SDS011;17400;52.392;9.750;2023-09-12T13:51:26;5.97;;;4.13;;
30635;SDS011;17400;52.392;9.750;2023-09-12T13:53:54;4.95;;;3.20;;
30635;SDS011;17400;52.392;9.750;2023-09-12T13:56:22;7.60;;;3.03;;
30635;SDS011;17400;52.392;9.750;2023-09-12T13:58:50;6.47;;;2.90;;
30635;SDS011;17400;52.392;9.750;2023-09-12T14:01:18;4.43;;;2.72;;
30635;SDS011;17400;52.392;9.750;2023-09-12T14:04:00;6.47;;;2.67;;
30635;SDS011;17400;52.392;9.750;2023-09-12T14:06:32;4.03;;;2.33;;
30635;SDS011;17400;52.392;9.750;2023-09-12T14:09:01;3.60;;;2.17;;
30635;SDS011;17400;52.392;9.750;2023-09-12T14:11:29;2.80;;;1.92;;
30635;SDS011;17400;52.392;9.750;2023-09-12T14:14:01;5.57;;;2.65;;
30635;SDS011;17400;52.392;9.750;2023-09-12T14:16:42;4.25;;;2.20;;
30635;SDS011;17400;52.392;9.750;2023-09-12T14:19:13;4.60;;;2.95;;
30635;SDS011;17400;52.392;9.750;2023-09-12T14:21:43;4.30;;;2.75;;
30635;SDS011;17400;52.392;9.750;2023-09-12T14:24:13;3.63;;;2.58;;
30635;SDS011;17400;52.392;9.750;2023-09-12T14:26:41;4.53;;;2.65;;
30635;SDS011;17400;52.392;9.750;2023-09-12T14:29:09;3.55;;;2.45;;
30635;SDS011;17400;52.392;9.750;2023-09-12T14:31:38;2.03;;;1.67;;
30635;SDS011;17400;52.392;9.750;2023-09-12T14:34:06;4.07;;;2.22;;
30635;SDS011;17400;52.392;9.750;2023-09-12T14:36:35;4.28;;;2.25;;
30635;SDS011;17400;52.392;9.750;2023-09-12T14:39:04;3.85;;;2.00;;
30635;SDS011;17400;52.392;9.750;2023-09-12T14:41:33;3.17;;;1.75;;
30635;SDS011;17400;52.392;9.750;2023-09-12T14:44:01;2.88;;;1.58;;
30635;SDS011;17400;52.392;9.750;2023-09-12T14:46:29;3.10;;;1.75;;
30635;SDS011;17400;52.392;9.750;2023-09-12T14:48:57;3.10;;;2.05;;
30635;SDS011;17400;52.392;9.750;2023-09-12T14:51:28;3.55;;;2.20;;
30635;SDS011;17400;52.392;9.750;2023-09-12T14:54:00;2.90;;;2.10;;
30635;SDS011;17400;52.392;9.750;2023-09-12T14:56:30;3.47;;;2.20;;
30635;SDS011;17400;52.392;9.750;2023-09-12T14:58:58;2.95;;;2.08;;
30635;SDS011;17400;52.392;9.750;2023-09-12T15:01:26;3.63;;;2.28;;
30635;SDS011;17400;52.392;9.750;2023-09-12T15:03:54;2.65;;;1.70;;